Terminal Aerodrome Forecast
Issued by NWS

Home | Current Version | Previous Version | Text Only | Print | Product List | Glossary On
Versions: 1 2 3 4 5 6 7 8 9 10 11 12 13 14
000
FTUS45 KLKN 022320
TAFWMC
TAF
KWMC 022320Z 0300/0324 36005KT P6SM SCT050 BKN250
     FM030100 VRB04KT P6SM SCT080 BKN200
     FM031600 17007KT P6SM SCT035 BKN080 BKN200=

USA.gov is the U.S. government's official web portal to all federal, state and local government web resources and services.